Pisces — WTDL — position and weather

sailwx.info

Track history (hours):
 
Tides and Currents Weather Stations Pressure Air Temp Water Temp Dewpoint Dewpoint Depression Visibility Wind Speed Wind Dir Waves Ship Positions

Oceanographic research ship Pisces (USA)

Last reported at 2018-May-14 05:11 UTC. Time now 2018-May-22 17:44 UTC.
Position N 32°12' W 079°07'.
Warning: this ship's position is 8 days out of date.

Type: Passenger vessel. MMSI: 369970145.

Date/timePositionNaut miles runAvg speedWind from/ knotsBaromVisibWave heightAir tempDewpointWater temp
2018-May-14 05:11N 32°12' W 079°07'711.2
2018-May-14 04:35N 32°06' W 079°11'111.1
2018-May-14 04:30N 32°06' W 079°12'611.6
2018-May-14 03:57N 32°00' W 079°15'612.6
2018-May-14 03:30N 31°55' W 079°18'713.7
2018-May-14 03:00N 31°49' W 079°22'713.6
2018-May-14 02:30N 31°43' W 079°26'713.7
2018-May-14 02:00N 31°37' W 079°30'713.8
2018-May-14 01:29N 31°31' W 079°34'62 3.8
2018-May-13 09:10N 30°36' W 080°09'25 1.6
2018-May-12 17:32N 30°21' W 080°32'110.4
2018-May-12 17:29N 30°21' W 080°32'1510.7
2018-May-12 16:03N 30°19' W 080°50'210.9
2018-May-12 15:51N 30°18' W 080°52'411.1
2018-May-12 15:30N 30°19' W 080°57'611.1
2018-May-12 14:59N 30°20' W 081°03'511.1
2018-May-12 14:30N 30°21' W 081°09'1211.0
2018-May-12 13:23N 30°24' W 081°23'  
2018-May-07 01:32N 30°24' W 081°24'0 0.0
2018-May-07 01:26N 30°24' W 081°24'0 0.0
2018-May-07 00:50N 30°24' W 081°24'213 4.7
2018-May-05 03:44N 27°05' W 079°56'312.8
2018-May-05 03:30N 27°03' W 079°56'613.0
2018-May-05 03:00N 26°56' W 079°54'3312.7
2018-May-05 00:23N 26°23' W 079°55'612.5
2018-May-04 23:54N 26°17' W 079°56'512.5
2018-May-04 23:30N 26°12' W 079°57'612.7
2018-May-04 23:00N 26°06' W 079°57'612.6
2018-May-04 22:30N 25°59' W 079°58'612.7
2018-May-04 22:00N 25°53' W 079°59'612.8
2018-May-04 21:30N 25°47' W 079°59'612.6
2018-May-04 21:00N 25°40' W 080°00'612.5
2018-May-04 20:30N 25°34' W 080°01'  
Track history (hours):
 
Tides and Currents Weather Stations Pressure Air Temp Water Temp Dewpoint Dewpoint Depression Visibility Wind Speed Wind Dir Waves Ship Positions

Oceanographic research ship Pisces (USA)

Last reported at 2018-May-14 05:11 UTC. Time now 2018-May-22 17:44 UTC.
Position N 32°12' W 079°07'.
Warning: this ship's position is 8 days out of date.

Type: Passenger vessel. MMSI: 369970145.

Date/timePositionNaut miles runAvg speedWind from/ knotsBaromVisibWave heightAir tempDewpointWater temp
2018-May-14 05:11N 32°12' W 079°07'711.2
2018-May-14 04:35N 32°06' W 079°11'111.1
2018-May-14 04:30N 32°06' W 079°12'611.6
2018-May-14 03:57N 32°00' W 079°15'612.6
2018-May-14 03:30N 31°55' W 079°18'713.7
2018-May-14 03:00N 31°49' W 079°22'713.6
2018-May-14 02:30N 31°43' W 079°26'713.7
2018-May-14 02:00N 31°37' W 079°30'713.8
2018-May-14 01:29N 31°31' W 079°34'62 3.8
2018-May-13 09:10N 30°36' W 080°09'25 1.6
2018-May-12 17:32N 30°21' W 080°32'110.4
2018-May-12 17:29N 30°21' W 080°32'1510.7
2018-May-12 16:03N 30°19' W 080°50'210.9
2018-May-12 15:51N 30°18' W 080°52'411.1
2018-May-12 15:30N 30°19' W 080°57'611.1
2018-May-12 14:59N 30°20' W 081°03'511.1
2018-May-12 14:30N 30°21' W 081°09'1211.0
2018-May-12 13:23N 30°24' W 081°23'  
2018-May-07 01:32N 30°24' W 081°24'0 0.0
2018-May-07 01:26N 30°24' W 081°24'0 0.0
2018-May-07 00:50N 30°24' W 081°24'213 4.7
2018-May-05 03:44N 27°05' W 079°56'312.8
2018-May-05 03:30N 27°03' W 079°56'613.0
2018-May-05 03:00N 26°56' W 079°54'3312.7
2018-May-05 00:23N 26°23' W 079°55'612.5
2018-May-04 23:54N 26°17' W 079°56'512.5
2018-May-04 23:30N 26°12' W 079°57'612.7
2018-May-04 23:00N 26°06' W 079°57'612.6
2018-May-04 22:30N 25°59' W 079°58'612.7
2018-May-04 22:00N 25°53' W 079°59'612.8
2018-May-04 21:30N 25°47' W 079°59'612.6
2018-May-04 21:00N 25°40' W 080°00'612.5
2018-May-04 20:30N 25°34' W 080°01'  

Dump ship's entire track history